Terminal Aerodrome Forecast
Issued by NWS Sioux Falls, SD

Home | Current Version | Previous Version | Text Only | Print | Product List | Glossary On
Versions: 1 2 3 4 5 6 7 8 9 10 11 12 13
000
FTUS43 KFSD 022342
TAFFSD
TAF
KFSD 022342Z 0300/0324 21011KT P6SM SKC
     FM030100 17008KT P6SM SKC
     FM030800 16007KT P6SM BKN070
     FM031000 16011KT P6SM SCT010 WS018/22040KT
     FM031400 17014G22KT P6SM BKN015
     FM032200 18012G19KT P6SM BKN025=

USA.gov is the U.S. government's official web portal to all federal, state and local government web resources and services.